Latest Weather Observations for Mawson*

IDT60801

Issued at 5:01 pm EST Friday 28 August 2015 (issued every 30 minutes, with the page automatically refreshed every 10 minutes)

About weather observations | Map of weather stations | Latest weather observations for ANT | Other Formats
Station Details ID: 300001 Name: MAWSON Lat: -67.60 Lon: 62.88 Height: 9.9 m
Data from the previous 72 hours. | See also: Recent months at Mawson*
Date/Time
EST
Temp
°C
App
Temp
°C
Dew
Point
Rel
Hum
%
Delta-T
°C
Wind Press
QNH
hPa
Press
MSL
hPa
Rain
since 9 am
mm
Dir
 
Spd
km/h
Gust
km/h
Spd
kts
Gust
kts
28/05:00pm -25.1 -30.1 -32.7 49 - N 6 7 3 4 996.4 - -
28/04:30pm -24.5 -29.1 -33.0 45 - N 4 7 2 4 996.4 - -
28/04:00pm -24.9 -30.5 -32.9 47 - ENE 9 17 5 9 996.3 996.5 -
28/03:30pm -26.5 -31.7 -33.0 54 - NNE 7 13 4 7 996.0 - -
28/03:00pm -23.3 -28.3 -33.3 39 - WNW 6 7 3 4 995.6 - -
28/02:30pm -25.4 -30.4 -33.1 49 - N 6 11 3 6 995.4 - -
28/02:00pm -25.6 -33.1 -33.3 49 - NW 19 26 10 14 995.2 - -
28/01:30pm -24.0 -29.2 -32.7 45 - S 7 15 4 8 994.5 - -
28/01:00pm -24.5 -29.7 -32.7 47 - N 7 13 4 7 994.3 994.5 -
28/12:30pm -23.1 -28.3 -31.7 45 - SSW 7 11 4 6 993.9 - -
28/12:00pm -24.3 -30.3 -33.0 44 - WNW 11 20 6 11 994.0 - -
28/11:42am -24.4 -31.5 -32.9 45 - S 17 28 9 15 993.2 - -
28/11:30am -25.1 -36.8 -32.7 49 - SSE 41 50 22 27 992.6 - -
28/11:00am -24.8 -37.0 -32.2 50 - SSE 44 52 24 28 992.2 - -
28/10:30am -24.7 -35.6 -32.1 50 - SSE 37 43 20 23 992.1 - -
28/10:00am -24.9 -36.2 -32.1 51 - SSE 39 44 21 24 991.5 991.7 -
28/09:30am -25.5 -37.7 -32.6 51 - SSE 44 56 24 30 991.4 - -
28/09:00am -24.8 -35.3 -32.8 47 - SSE 35 43 19 23 991.0 - -
28/08:30am -25.3 -35.8 -33.1 48 - SSE 35 43 19 23 990.8 - -
28/08:00am -24.3 -33.9 -31.9 49 - SE 30 44 16 24 990.5 - -
28/07:30am -24.3 -34.4 -32.3 48 - SE 33 48 18 26 990.0 - -
28/07:16am -24.6 -34.7 -32.8 47 - SSE 33 39 18 21 990.0 - -
28/07:00am -25.0 -38.0 -32.8 48 - SE 48 59 26 32 989.6 989.8 -
28/06:30am -23.9 -38.0 -32.9 43 - SE 54 63 29 34 989.1 - -
28/06:00am -23.1 -35.3 -33.1 40 - SE 44 54 24 29 988.7 - -
28/05:30am -23.3 -35.5 -33.1 40 - SE 44 54 24 29 988.3 - -
28/05:00am -23.5 -36.5 -32.8 42 - SE 48 56 26 30 988.1 - -
28/04:30am -24.8 -37.8 -34.4 41 - SE 48 56 26 30 987.9 - -
28/04:00am -23.5 -36.1 -33.5 39 - SE 46 52 25 28 987.2 987.4 -
28/03:30am -25.0 -38.4 -34.9 39 - SE 50 59 27 32 987.0 - -
28/03:00am -23.9 -36.5 -34.4 37 - SE 46 54 25 29 986.8 - -
28/02:30am -24.3 -37.3 -34.5 38 - SE 48 56 26 30 986.6 - -
28/02:00am -24.5 -36.6 -34.2 40 - SSE 43 52 23 28 986.1 - -
28/01:30am -24.2 -37.6 -33.4 42 - SE 50 57 27 31 985.8 - -
28/01:00am -24.8 -38.6 -34.4 41 - SE 52 61 28 33 985.4 985.6 -
28/12:30am -24.2 -36.8 -32.7 45 - SE 46 56 25 30 985.4 - -
28/12:00am -25.0 -38.0 -32.4 50 - SE 48 54 26 29 985.1 - -
 
Date/Time
EST
Temp
°C
App
Temp
°C
Dew
Point
Rel
Hum
%
Delta-T
°C
Wind Press
QNH
hPa
Press
MSL
hPa
Rain
since 9 am
mm
Dir
 
Spd
km/h
Gust
km/h
Spd
kts
Gust
kts
27/11:30pm -25.5 -38.5 -32.0 55 - SE 48 54 26 29 984.9 - -
27/11:00pm -25.6 -38.2 -32.9 50 - SE 46 52 25 28 984.5 - -
27/10:30pm -24.6 -37.6 -33.8 42 - SE 48 56 26 30 984.3 - -
27/10:00pm -24.7 -36.7 -31.9 51 - SE 43 50 23 27 983.8 984.0 -
27/09:30pm -24.5 -35.8 -30.9 55 - SE 39 44 21 24 983.3 - -
27/09:00pm -23.5 -33.4 -30.4 53 - ESE 32 39 17 21 982.8 - -
27/08:30pm -24.6 -34.7 -32.0 50 - ESE 33 43 18 23 982.4 - -
27/08:00pm -24.5 -37.1 -32.3 48 - SE 46 56 25 30 982.2 - -
27/07:30pm -24.2 -37.6 -32.9 44 - SE 50 57 27 31 982.0 - -
27/07:00pm -23.9 -37.3 -32.9 43 - SE 50 59 27 32 982.1 982.3 -
27/06:30pm -24.1 -38.2 -32.4 46 - SE 54 63 29 34 981.6 - -
27/06:00pm -24.3 -38.4 -32.6 46 - SE 54 63 29 34 981.1 - -
27/05:30pm -24.3 -39.4 -32.8 45 - SE 59 67 32 36 980.6 - -
27/05:00pm -24.2 -38.9 -32.9 44 - SE 57 65 31 35 980.2 - -
27/04:30pm -24.2 -38.7 -34.1 40 - SE 56 63 30 34 980.4 - -
27/04:00pm -24.5 -37.5 -34.4 39 - SE 48 54 26 29 980.7 980.9 -
27/03:30pm -24.3 -38.1 -34.8 37 - SE 52 61 28 33 980.7 - -
27/03:00pm -24.9 -39.1 -34.8 39 - SE 54 59 29 32 980.2 - -
27/02:30pm -24.1 -37.5 -34.9 36 - SE 50 57 27 31 980.1 - -
27/02:00pm -24.9 -39.4 -35.0 39 - SE 56 65 30 35 979.9 - -
27/01:30pm -25.1 -38.9 -35.0 39 - SE 52 61 28 33 979.8 - -
27/01:00pm -24.2 -37.6 -35.0 36 - SE 50 56 27 30 979.7 979.9 -
27/12:30pm -24.5 -38.6 -34.4 39 - SE 54 61 29 33 979.8 - -
27/12:00pm -24.7 -38.1 -35.1 38 - SE 50 59 27 32 979.6 - -
27/11:30am -24.5 -38.7 -35.8 34 - SE 54 63 29 34 979.3 - -
27/11:00am -24.3 -36.9 -35.3 35 - SE 46 56 25 30 979.6 - -
27/10:30am -24.4 -38.2 -35.1 37 - SE 52 63 28 34 979.3 - -
27/10:00am -24.6 -38.4 -34.5 39 - SE 52 61 28 33 978.9 979.1 -
27/09:30am -24.1 -37.5 -35.4 35 - SE 50 59 27 32 978.7 - -
27/09:00am -23.5 -36.1 -35.2 33 - SE 46 54 25 29 978.8 - -
27/08:30am -23.2 -35.3 -34.9 33 - SE 43 52 23 28 978.5 - -
27/08:00am -23.8 -35.9 -34.0 39 - SE 43 54 23 29 978.9 - -
27/07:30am -25.3 -39.5 -34.9 40 - SE 54 63 29 34 978.8 - -
27/07:00am -23.6 -35.8 -33.9 38 - SE 44 56 24 30 978.8 979.0 -
27/06:30am -24.8 -37.4 -33.9 43 - SE 46 63 25 34 978.5 - -
27/06:00am -23.3 -36.3 -35.3 32 - SE 48 56 26 30 978.1 - -
27/05:30am -22.7 -35.3 -35.1 31 - SE 46 54 25 29 978.4 - -
27/05:00am -23.0 -36.4 -34.4 35 - SE 50 57 27 31 978.2 - -
27/04:30am -23.3 -36.7 -34.4 35 - SE 50 57 27 31 977.9 - -
27/04:00am -23.8 -37.2 -33.0 43 - SE 50 57 27 31 977.8 977.9 -
27/03:30am -24.3 -38.5 -34.5 38 - SE 54 61 29 33 977.9 - -
27/03:00am -22.2 -36.4 -35.0 30 - SE 54 63 29 34 977.4 - -
27/02:30am -22.3 -36.4 -33.8 34 - SE 54 61 29 33 977.6 - -
27/02:00am -22.6 -36.4 -33.0 38 - SE 52 61 28 33 977.8 - -
27/01:30am -22.4 -35.4 -33.6 35 - SE 48 56 26 30 978.1 - -
27/01:00am -22.7 -34.9 -33.0 39 - SE 44 56 24 30 978.1 978.3 -
27/12:30am -23.6 -35.8 -32.4 44 - SSE 44 52 24 28 977.8 - -
27/12:00am -23.8 -36.8 -32.8 43 - SSE 48 57 26 31 977.6 - -
 
Date/Time
EST
Temp
°C
App
Temp
°C
Dew
Point
Rel
Hum
%
Delta-T
°C
Wind Press
QNH
hPa
Press
MSL
hPa
Rain
since 9 am
mm
Dir
 
Spd
km/h
Gust
km/h
Spd
kts
Gust
kts
26/11:30pm -23.9 -36.9 -32.6 45 - SSE 48 57 26 31 977.7 - -
26/11:00pm -23.3 -35.0 -32.6 42 - SSE 41 48 22 26 977.6 - -
26/10:30pm -23.2 -33.1 -32.5 42 - SSE 32 41 17 22 978.0 - -
26/10:00pm -21.5 -32.8 -33.1 34 - SE 39 52 21 28 978.0 978.1 -
26/09:30pm -20.9 -33.1 -33.2 32 - SE 44 56 24 30 977.7 - -
26/09:00pm -22.0 -34.2 -32.7 37 - SE 44 52 24 28 977.6 - -
26/08:30pm -21.1 -33.3 -32.2 36 - SE 44 50 24 27 977.5 - -
26/08:00pm -20.8 -31.3 -31.3 38 - SE 35 50 19 27 977.7 - -
26/07:30pm -22.0 -35.0 -30.0 48 - SE 48 56 26 30 977.6 - -
26/07:09pm -21.0 -33.2 -31.2 39 - SE 44 54 24 29 978.0 - -
26/07:00pm -22.0 -31.9 -31.4 42 - S 32 41 17 22 978.0 978.1 -
26/06:56pm -21.3 -30.8 -31.0 41 - SSE 30 39 16 21 977.9 - -
26/06:30pm -20.3 -25.9 -32.3 33 - NNW 9 20 5 11 978.2 - -
26/06:00pm -21.8 -32.3 -30.3 46 - SSE 35 43 19 23 977.8 - -
26/05:30pm -22.3 -33.5 -30.3 48 - SSE 39 46 21 25 978.0 - -
26/05:00pm -22.2 -33.5 -30.6 46 - SSE 39 48 21 26 977.8 - -
26/04:30pm -23.0 -33.1 -30.5 50 - S 33 43 18 23 977.9 - -
26/04:00pm -23.4 -35.4 -30.1 54 - SSE 43 54 23 29 978.2 978.4 -
26/03:30pm -23.9 -38.0 -30.7 53 - S 54 61 29 33 977.9 - -
26/03:00pm -23.2 -35.8 -30.7 50 - SSE 46 57 25 31 977.9 - -
26/02:30pm -24.3 -38.8 -30.3 58 - SSE 56 61 30 33 977.5 - -
26/02:25pm -24.4 -38.9 -30.4 58 - SSE 56 63 30 34 977.4 - -
26/02:11pm -22.9 -32.8 -30.8 48 - SSE 32 59 17 32 977.4 - -
26/02:08pm -22.6 -31.8 -31.7 43 - SSE 28 39 15 21 977.7 - -
26/02:00pm -21.6 -27.9 -32.1 38 - ESE 13 17 7 9 977.6 - -
26/01:30pm -23.3 -33.2 -31.9 45 - SSE 32 39 17 21 977.2 - -
26/01:00pm -23.2 -34.1 -31.8 45 - SSE 37 44 20 24 977.3 977.4 -
26/12:30pm -24.7 -38.8 -30.5 59 - SSE 54 59 29 32 976.9 - -
26/12:00pm -24.5 -37.8 -30.2 59 - S 50 57 27 31 976.8 - -
26/11:30am -24.4 -37.4 -30.3 58 - SSE 48 61 26 33 976.4 - -
26/11:00am -23.4 -34.7 -30.7 51 - SSE 39 46 21 25 976.4 - -
26/10:30am -23.1 -33.2 -30.6 50 - SSE 33 37 18 20 976.5 - -
26/10:00am -23.8 -35.8 -30.1 56 - SSE 43 50 23 27 976.0 976.1 -
26/09:30am -23.2 -33.3 -30.5 51 - SSE 33 39 18 21 976.2 - -
26/09:00am -22.6 -32.5 -30.3 49 - SSE 32 37 17 20 976.0 - -
26/08:37am -22.4 -31.6 -30.1 50 - SE 28 32 15 17 976.1 - -
26/08:30am -22.0 -27.5 -30.4 46 - SSW 9 13 5 7 976.3 - -
26/08:00am -22.1 -30.5 -31.5 42 - S 24 39 13 21 976.1 - -
26/07:30am -21.4 -28.9 -30.8 42 - SSE 19 24 10 13 976.0 - -
26/07:15am -22.2 -31.4 -30.9 45 - SE 28 32 15 17 975.9 - -
26/07:00am -21.9 -26.5 -30.1 47 - SE 4 9 2 5 975.9 976.0 -
26/06:30am -21.2 -25.4 -30.7 42 - S 2 7 1 4 975.6 - -
26/06:00am -21.1 -26.6 -30.1 44 - SSE 9 15 5 8 975.5 - -
26/05:30am -21.5 -26.1 -29.8 47 - W 4 9 2 5 975.6 - -
26/05:00am -21.2 -26.4 -29.3 48 - SSE 7 15 4 8 975.8 - -
26/04:30am -21.2 -26.4 -29.3 48 - WSW 7 9 4 5 975.9 - -
26/04:00am -21.0 -27.3 -28.4 51 - NW 13 20 7 11 976.0 976.1 -
26/03:30am -20.7 -26.6 -28.6 49 - W 11 19 6 10 975.8 - -
26/03:00am -20.1 -26.0 -28.2 48 - SW 11 17 6 9 975.8 - -
26/02:30am -21.7 -26.8 -27.5 59 - W 7 9 4 5 976.2 - -
26/02:00am -21.6 -25.4 -28.0 56 - CALM 0 2 0 1 976.4 - -
26/01:30am -21.3 -26.4 -27.1 59 - W 7 11 4 6 976.2 - -
26/01:00am -21.4 -26.5 -26.5 63 - NNE 7 11 4 6 976.2 976.3 -
26/12:30am -21.0 -24.8 -27.0 58 - CALM 0 7 0 4 976.2 - -
26/12:00am -21.0 -25.9 -26.5 61 - N 6 9 3 5 976.4 - -
 
Date/Time
EST
Temp
°C
App
Temp
°C
Dew
Point
Rel
Hum
%
Delta-T
°C
Wind Press
QNH
hPa
Press
MSL
hPa
Rain
since 9 am
mm
Dir
 
Spd
km/h
Gust
km/h
Spd
kts
Gust
kts
25/11:30pm -21.1 -26.2 -25.7 66 - N 7 13 4 7 976.4 - -
25/11:00pm -20.9 -25.8 -26.1 63 - S 6 7 3 4 976.6 - -
25/10:30pm -20.7 -26.2 -26.0 62 - W 9 15 5 8 976.6 - -
25/10:00pm -19.1 -25.3 -26.0 54 - WSW 13 17 7 9 976.9 977.0 -
25/09:30pm -18.7 -25.3 -26.1 52 - SSW 15 20 8 11 977.2 - -

Other Formats:

Comma delimited format used in spreadsheet applications
http://www.bom.gov.au/fwo/IDT60803/IDT60803.89564.axf

JavaScript Object Notation format (JSON) in row-major order
http://www.bom.gov.au/fwo/IDT60803/IDT60803.89564.json